Time;durP1;ratioP1;P1;durP2;ratioP2;P2;SDS_P1;SDS_P2;PMS_P1;PMS_P2;Temp;Humidity;BMP_temperature;BMP_pressure;BME280_temperature;BME280_humidity;BME280_pressure;Samples;Min_cycle;Max_cycle;Signal;HPM_P1;HPM_P2
2023/11/19 00:00:10;;;;;;;11.25;7.30;;;;;;;;;;338721;29;1492;-61
2023/11/19 00:00:23;;;;;;;10.43;7.20;;;;;;;;;;341176;29;1770;-62
2023/11/19 00:00:34;;;;;;;9.60;7.10;;;;;;;;;;341380;29;1362;-61
2023/11/19 00:00:46;;;;;;;9.60;7.07;;;;;;;;;;342283;28;1272;-61
2023/11/19 00:00:57;;;;;;;10.02;6.93;;;;;;;;;;341333;29;1295;-61
2023/11/19 00:01:08;;;;;;;10.88;6.85;;;;;;;;;;342683;28;1414;-61
2023/11/19 00:01:19;;;;;;;12.32;7.07;;;;;;;;;;341343;29;1267;-61
2023/11/19 00:01:30;;;;;;;12.43;7.35;;;;;;;;;;338698;29;1622;-61
2023/11/19 00:01:41;;;;;;;11.10;7.40;;;;;;;;;;341264;29;1260;-61
2023/11/19 00:01:53;;;;;;;10.88;7.32;;;;;;;;;;341335;29;1268;-62
2023/11/19 00:02:04;;;;;;;10.75;7.18;;;;;;;;;;341311;29;1268;-62
2023/11/19 00:02:15;;;;;;;12.63;7.30;;;;;;;;;;339979;29;1414;-61
2023/11/19 00:02:26;;;;;;;12.98;7.50;;;;;;;;;;341338;29;1259;-62
2023/11/19 00:02:40;;;;;;;12.00;7.55;;;;;;;;;;341336;29;1208;-62
2023/11/19 00:02:51;;;;;;;10.05;7.32;;;;;;;;;;341700;28;2883;-61
2023/11/19 00:03:03;;;;;;;11.95;7.30;;;;;;;;;;341323;29;1522;-61
2023/11/19 00:03:14;;;;;;;12.82;7.38;;;;;;;;;;342559;28;1480;-61
2023/11/19 00:03:25;;;;;;;12.18;7.32;;;;;;;;;;344066;28;1274;-61
2023/11/19 00:03:36;;;;;;;10.18;6.95;;;;;;;;;;342582;28;1385;-61
2023/11/19 00:03:48;;;;;;;10.38;6.72;;;;;;;;;;341315;29;1491;-60
2023/11/19 00:03:59;;;;;;;10.45;7.03;;;;;;;;;;341351;29;1182;-61
2023/11/19 00:04:10;;;;;;;11.15;7.22;;;;;;;;;;339975;29;1327;-61
2023/11/19 00:04:21;;;;;;;10.55;7.18;;;;;;;;;;339934;29;1287;-61
2023/11/19 00:04:32;;;;;;;10.30;7.00;;;;;;;;;;339983;29;1268;-61
2023/11/19 00:04:43;;;;;;;10.13;6.95;;;;;;;;;;338650;29;1515;-61
2023/11/19 00:04:54;;;;;;;10.45;7.10;;;;;;;;;;339420;29;1394;-61
2023/11/19 00:05:08;;;;;;;12.02;7.20;;;;;;;;;;341325;29;1378;-61
2023/11/19 00:05:20;;;;;;;11.38;7.05;;;;;;;;;;341208;29;1362;-60
2023/11/19 00:05:31;;;;;;;10.57;7.13;;;;;;;;;;341266;29;1587;-61
2023/11/19 00:05:42;;;;;;;10.40;7.18;;;;;;;;;;338583;29;1284;-61
2023/11/19 00:05:53;;;;;;;11.40;7.10;;;;;;;;;;338754;29;1434;-61
2023/11/19 00:06:04;;;;;;;10.93;6.70;;;;;;;;;;341178;29;1348;-61
2023/11/19 00:06:16;;;;;;;10.27;6.82;;;;;;;;;;341304;29;1435;-61
2023/11/19 00:06:27;;;;;;;11.43;7.07;;;;;;;;;;339999;29;1330;-62
2023/11/19 00:06:38;;;;;;;10.73;6.82;;;;;;;;;;339937;29;1283;-62
2023/11/19 00:06:50;;;;;;;10.32;6.50;;;;;;;;;;339579;29;1565;-62
2023/11/19 00:07:03;;;;;;;10.20;6.78;;;;;;;;;;339949;29;1603;-61
2023/11/19 00:07:14;;;;;;;10.30;7.30;;;;;;;;;;341273;29;1421;-62
2023/11/19 00:07:26;;;;;;;9.20;7.07;;;;;;;;;;341374;29;1798;-62
2023/11/19 00:07:37;;;;;;;8.88;6.75;;;;;;;;;;341382;29;1457;-62
2023/11/19 00:07:48;;;;;;;9.07;6.53;;;;;;;;;;339991;29;1447;-62
2023/11/19 00:07:59;;;;;;;10.07;6.95;;;;;;;;;;340068;29;1655;-61
2023/11/19 00:08:10;;;;;;;10.63;7.38;;;;;;;;;;341261;28;1426;-62
2023/11/19 00:08:21;;;;;;;10.57;7.25;;;;;;;;;;341336;29;1334;-62
2023/11/19 00:08:32;;;;;;;10.98;7.40;;;;;;;;;;340042;29;1571;-62
2023/11/19 00:08:43;;;;;;;10.82;7.18;;;;;;;;;;341217;28;1407;-61
2023/11/19 00:08:54;;;;;;;10.88;7.68;;;;;;;;;;339991;29;1329;-62
2023/11/19 00:09:06;;;;;;;9.65;7.35;;;;;;;;;;338569;29;1382;-62
2023/11/19 00:09:18;;;;;;;10.75;7.63;;;;;;;;;;340016;29;1300;-62
2023/11/19 00:09:29;;;;;;;11.20;7.45;;;;;;;;;;338733;29;1434;-62
2023/11/19 00:09:40;;;;;;;12.07;7.68;;;;;;;;;;338712;29;1426;-62
2023/11/19 00:09:51;;;;;;;11.18;7.30;;;;;;;;;;339855;29;1412;-62
2023/11/19 00:10:06;;;;;;;10.50;7.30;;;;;;;;;;339860;29;1748;-61
2023/11/19 00:10:18;;;;;;;11.20;7.60;;;;;;;;;;339986;29;1518;-61
2023/11/19 00:10:30;;;;;;;11.73;7.90;;;;;;;;;;341376;29;1448;-62
2023/11/19 00:10:41;;;;;;;11.60;7.88;;;;;;;;;;342672;28;1451;-62
2023/11/19 00:10:52;;;;;;;10.50;7.53;;;;;;;;;;341335;29;1346;-62
2023/11/19 00:11:03;;;;;;;10.07;7.57;;;;;;;;;;341177;29;1300;-62
2023/11/19 00:11:15;;;;;;;10.50;7.70;;;;;;;;;;340057;29;1629;-62
2023/11/19 00:11:27;;;;;;;12.00;7.82;;;;;;;;;;339981;29;1810;-61
2023/11/19 00:11:38;;;;;;;12.00;7.80;;;;;;;;;;339928;29;1517;-61
2023/11/19 00:11:49;;;;;;;11.60;7.93;;;;;;;;;;338644;29;1414;-62
2023/11/19 00:12:00;;;;;;;10.73;7.93;;;;;;;;;;338684;29;1311;-61
2023/11/19 00:12:13;;;;;;;11.20;7.80;;;;;;;;;;338538;29;1307;-62
2023/11/19 00:12:24;;;;;;;10.75;7.47;;;;;;;;;;338704;29;1412;-61
2023/11/19 00:12:35;;;;;;;10.65;7.35;;;;;;;;;;341271;29;1436;-62
2023/11/19 00:12:47;;;;;;;10.20;7.30;;;;;;;;;;339966;29;1487;-61
2023/11/19 00:12:58;;;;;;;10.23;7.53;;;;;;;;;;341315;29;1444;-62
2023/11/19 00:13:10;;;;;;;11.23;7.60;;;;;;;;;;341365;29;1317;-61
2023/11/19 00:13:21;;;;;;;11.48;7.72;;;;;;;;;;341181;29;1449;-62
2023/11/19 00:13:32;;;;;;;12.07;8.02;;;;;;;;;;341300;29;1462;-61
2023/11/19 00:13:43;;;;;;;11.70;8.10;;;;;;;;;;341279;29;1606;-62
2023/11/19 00:13:55;;;;;;;11.63;7.90;;;;;;;;;;339952;29;1519;-62
2023/11/19 00:14:08;;;;;;;11.77;7.70;;;;;;;;;;339952;29;1438;-62
2023/11/19 00:14:19;;;;;;;10.82;7.85;;;;;;;;;;339989;29;1493;-62
2023/11/19 00:14:30;;;;;;;10.68;7.93;;;;;;;;;;340014;29;1311;-62
2023/11/19 00:14:42;;;;;;;10.43;7.78;;;;;;;;;;339907;29;1626;-62
2023/11/19 00:14:53;;;;;;;10.05;7.45;;;;;;;;;;339733;29;1516;-62
2023/11/19 00:15:04;;;;;;;11.13;7.53;;;;;;;;;;341184;29;1566;-62
2023/11/19 00:15:17;;;;;;;12.35;7.80;;;;;;;;;;340019;29;1343;-62
2023/11/19 00:15:29;;;;;;;12.63;8.13;;;;;;;;;;338692;29;1455;-62
2023/11/19 00:15:40;;;;;;;10.98;7.80;;;;;;;;;;341236;29;1305;-62
2023/11/19 00:15:51;;;;;;;10.55;7.47;;;;;;;;;;341261;29;1329;-62
2023/11/19 00:16:04;;;;;;;11.23;7.57;;;;;;;;;;339913;29;1517;-62
2023/11/19 00:16:16;;;;;;;13.10;7.85;;;;;;;;;;339982;29;1338;-61
2023/11/19 00:16:27;;;;;;;14.60;8.18;;;;;;;;;;339892;29;1348;-61
2023/11/19 00:16:39;;;;;;;13.00;7.85;;;;;;;;;;339332;29;1676;-61
2023/11/19 00:16:51;;;;;;;12.15;7.88;;;;;;;;;;339952;29;1328;-61
2023/11/19 00:17:03;;;;;;;11.20;7.70;;;;;;;;;;341364;29;1324;-61
2023/11/19 00:17:15;;;;;;;11.82;7.90;;;;;;;;;;341230;29;1966;-61
2023/11/19 00:17:27;;;;;;;11.43;7.88;;;;;;;;;;342609;28;1423;-61
2023/11/19 00:17:40;;;;;;;11.57;8.02;;;;;;;;;;340004;29;1322;-61
2023/11/19 00:17:51;;;;;;;11.13;7.70;;;;;;;;;;339959;29;1414;-63
2023/11/19 00:18:05;;;;;;;12.35;7.78;;;;;;;;;;341237;29;1530;-62
2023/11/19 00:18:16;;;;;;;12.48;7.88;;;;;;;;;;341320;29;903;-61
2023/11/19 00:18:27;;;;;;;12.55;7.97;;;;;;;;;;341217;29;1411;-62
2023/11/19 00:18:39;;;;;;;11.52;7.90;;;;;;;;;;341238;29;1804;-62
2023/11/19 00:18:50;;;;;;;11.45;7.65;;;;;;;;;;341326;28;1515;-62
2023/11/19 00:19:01;;;;;;;10.68;7.82;;;;;;;;;;341229;28;1465;-62
2023/11/19 00:19:12;;;;;;;10.82;7.50;;;;;;;;;;343987;28;1324;-62
2023/11/19 00:19:23;;;;;;;11.48;7.72;;;;;;;;;;342640;28;1365;-62
2023/11/19 00:19:35;;;;;;;11.48;7.53;;;;;;;;;;342648;28;1317;-62
2023/11/19 00:19:46;;;;;;;11.00;7.68;;;;;;;;;;341128;29;1506;-62
2023/11/19 00:19:57;;;;;;;10.48;7.50;;;;;;;;;;341357;29;1412;-60
2023/11/19 00:20:09;;;;;;;10.98;7.70;;;;;;;;;;339933;29;1427;-61
2023/11/19 00:20:21;;;;;;;11.88;7.90;;;;;;;;;;341261;29;1414;-61
2023/11/19 00:20:32;;;;;;;11.85;7.75;;;;;;;;;;341187;29;1264;-61
2023/11/19 00:20:44;;;;;;;11.60;7.50;;;;;;;;;;341269;29;1856;-61
2023/11/19 00:20:55;;;;;;;11.88;7.30;;;;;;;;;;339923;29;1797;-61
2023/11/19 00:21:08;;;;;;;12.70;7.40;;;;;;;;;;340593;29;1419;-61
2023/11/19 00:21:19;;;;;;;11.95;7.40;;;;;;;;;;341310;29;1478;-61
2023/11/19 00:21:30;;;;;;;11.77;7.57;;;;;;;;;;339880;29;1367;-60
2023/11/19 00:21:41;;;;;;;12.55;8.10;;;;;;;;;;340052;29;1499;-61
2023/11/19 00:21:52;;;;;;;13.65;7.82;;;;;;;;;;341253;29;1485;-60
2023/11/19 00:22:04;;;;;;;11.68;7.60;;;;;;;;;;339932;29;1285;-61
2023/11/19 00:22:15;;;;;;;12.25;7.57;;;;;;;;;;341303;29;1566;-62
2023/11/19 00:22:26;;;;;;;11.77;7.65;;;;;;;;;;341282;29;1425;-62
2023/11/19 00:22:37;;;;;;;10.93;7.10;;;;;;;;;;341345;29;1287;-62
2023/11/19 00:22:50;;;;;;;9.75;7.30;;;;;;;;;;339920;29;1711;-61
2023/11/19 00:23:02;;;;;;;10.48;7.53;;;;;;;;;;341526;28;1478;-61
2023/11/19 00:23:13;;;;;;;11.85;7.75;;;;;;;;;;341238;29;1200;-61
2023/11/19 00:23:24;;;;;;;12.40;7.65;;;;;;;;;;342569;28;1358;-61
2023/11/19 00:23:35;;;;;;;11.60;7.63;;;;;;;;;;342676;28;1424;-62
2023/11/19 00:23:46;;;;;;;10.55;7.50;;;;;;;;;;342546;28;1591;-61
2023/11/19 00:23:58;;;;;;;10.30;7.63;;;;;;;;;;341331;29;1539;-61
2023/11/19 00:24:11;;;;;;;10.60;7.72;;;;;;;;;;338677;29;1443;-61
2023/11/19 00:24:22;;;;;;;10.52;7.72;;;;;;;;;;338744;29;1375;-60
2023/11/19 00:24:33;;;;;;;11.10;7.75;;;;;;;;;;341264;28;1405;-62
2023/11/19 00:24:44;;;;;;;11.50;7.75;;;;;;;;;;343654;28;1854;-62
2023/11/19 00:24:56;;;;;;;12.02;7.88;;;;;;;;;;342580;28;1304;-62
2023/11/19 00:25:08;;;;;;;11.90;7.75;;;;;;;;;;339954;29;1287;-62
2023/11/19 00:25:19;;;;;;;11.98;7.75;;;;;;;;;;341316;29;1356;-62
2023/11/19 00:25:31;;;;;;;11.38;7.70;;;;;;;;;;338629;29;1344;-62
2023/11/19 00:25:42;;;;;;;10.38;7.63;;;;;;;;;;339921;29;1459;-62
2023/11/19 00:25:53;;;;;;;10.45;7.68;;;;;;;;;;341215;29;1308;-61
2023/11/19 00:26:05;;;;;;;10.45;7.57;;;;;;;;;;342563;28;1300;-62
2023/11/19 00:26:16;;;;;;;10.68;7.35;;;;;;;;;;341147;29;1442;-61
2023/11/19 00:26:28;;;;;;;10.50;7.50;;;;;;;;;;341248;29;1391;-62
2023/11/19 00:26:41;;;;;;;10.73;7.47;;;;;;;;;;341219;29;1300;-62
2023/11/19 00:26:52;;;;;;;11.73;7.57;;;;;;;;;;339941;29;1541;-62
2023/11/19 00:27:04;;;;;;;11.77;7.43;;;;;;;;;;338714;29;1330;-62
2023/11/19 00:27:15;;;;;;;10.77;7.55;;;;;;;;;;338595;29;1308;-62
2023/11/19 00:27:26;;;;;;;11.02;7.47;;;;;;;;;;340001;29;1332;-62
2023/11/19 00:27:37;;;;;;;10.75;7.30;;;;;;;;;;340070;29;1321;-62
2023/11/19 00:27:50;;;;;;;10.57;7.32;;;;;;;;;;341121;29;1562;-61
2023/11/19 00:28:01;;;;;;;11.57;7.28;;;;;;;;;;339994;29;1470;-62
2023/11/19 00:28:12;;;;;;;11.88;7.38;;;;;;;;;;338695;29;1335;-62
2023/11/19 00:28:24;;;;;;;11.82;7.53;;;;;;;;;;339920;29;1391;-62
2023/11/19 00:28:38;;;;;;;11.55;7.70;;;;;;;;;;341332;29;1492;-62
2023/11/19 00:28:49;;;;;;;12.65;7.90;;;;;;;;;;341292;29;1085;-63
2023/11/19 00:29:00;;;;;;;12.43;7.88;;;;;;;;;;339920;29;1380;-61
2023/11/19 00:29:13;;;;;;;11.15;7.45;;;;;;;;;;338594;29;1373;-60
2023/11/19 00:29:24;;;;;;;10.65;7.47;;;;;;;;;;340202;29;1442;-60
2023/11/19 00:29:36;;;;;;;10.35;7.38;;;;;;;;;;340825;29;1517;-61
2023/11/19 00:29:47;;;;;;;11.05;7.63;;;;;;;;;;342579;28;1477;-61
2023/11/19 00:29:58;;;;;;;12.45;7.53;;;;;;;;;;341290;29;1688;-60
2023/11/19 00:30:09;;;;;;;13.45;7.85;;;;;;;;;;341296;29;1319;-61
2023/11/19 00:30:20;;;;;;;12.40;7.63;;;;;;;;;;342564;28;1488;-61
2023/11/19 00:30:31;;;;;;;11.35;7.78;;;;;;;;;;340008;29;1481;-61
2023/11/19 00:30:42;;;;;;;12.02;7.97;;;;;;;;;;342569;28;1394;-61
2023/11/19 00:30:54;;;;;;;12.68;8.27;;;;;;;;;;342504;28;1290;-61
2023/11/19 00:31:05;;;;;;;11.45;8.07;;;;;;;;;;340589;28;1504;-61
2023/11/19 00:31:16;;;;;;;10.90;7.80;;;;;;;;;;339878;29;1319;-61
2023/11/19 00:31:27;;;;;;;10.82;7.82;;;;;;;;;;339899;29;1351;-61
2023/11/19 00:31:38;;;;;;;10.35;7.88;;;;;;;;;;338703;29;1358;-61
2023/11/19 00:31:50;;;;;;;10.68;7.90;;;;;;;;;;338604;29;1543;-62
2023/11/19 00:32:01;;;;;;;10.48;7.75;;;;;;;;;;339979;29;1545;-61
2023/11/19 00:32:12;;;;;;;10.35;7.50;;;;;;;;;;341279;29;1424;-61
2023/11/19 00:32:23;;;;;;;10.57;7.40;;;;;;;;;;342588;28;1287;-61
2023/11/19 00:32:34;;;;;;;11.95;7.60;;;;;;;;;;341306;29;1392;-62
2023/11/19 00:32:45;;;;;;;12.40;7.63;;;;;;;;;;341026;29;1434;-61
2023/11/19 00:32:56;;;;;;;10.85;7.65;;;;;;;;;;339971;29;1287;-61
2023/11/19 00:33:08;;;;;;;10.25;7.28;;;;;;;;;;341297;29;1295;-61
2023/11/19 00:33:19;;;;;;;10.63;7.45;;;;;;;;;;341264;29;1445;-62
2023/11/19 00:33:31;;;;;;;11.50;7.88;;;;;;;;;;341302;29;1296;-60
2023/11/19 00:33:42;;;;;;;12.45;8.23;;;;;;;;;;339988;29;1424;-60
2023/11/19 00:33:53;;;;;;;12.77;8.13;;;;;;;;;;341273;29;1564;-60
2023/11/19 00:34:06;;;;;;;12.85;7.97;;;;;;;;;;341210;29;1447;-60
2023/11/19 00:34:21;;;;;;;11.57;8.00;;;;;;;;;;342507;28;1524;-60
2023/11/19 00:34:32;;;;;;;10.82;7.80;;;;;;;;;;341331;29;1288;-60
2023/11/19 00:34:47;;;;;;;11.57;7.88;;;;;;;;;;342589;28;1528;-60
2023/11/19 00:34:58;;;;;;;12.00;7.60;;;;;;;;;;339948;29;1420;-58
2023/11/19 00:35:10;;;;;;;11.27;7.60;;;;;;;;;;339949;29;1529;-59
2023/11/19 00:35:21;;;;;;;11.27;7.68;;;;;;;;;;338665;29;1303;-60
2023/11/19 00:35:32;;;;;;;10.88;7.63;;;;;;;;;;338697;29;1291;-59
2023/11/19 00:35:43;;;;;;;12.00;8.13;;;;;;;;;;341257;29;1529;-59
2023/11/19 00:35:56;;;;;;;11.32;8.10;;;;;;;;;;340120;29;1704;-60
2023/11/19 00:36:07;;;;;;;11.77;8.07;;;;;;;;;;339957;29;1523;-60
2023/11/19 00:36:18;;;;;;;11.65;7.90;;;;;;;;;;341345;29;1527;-60
2023/11/19 00:36:29;;;;;;;11.55;7.80;;;;;;;;;;341202;29;1327;-60
2023/11/19 00:36:40;;;;;;;11.85;8.25;;;;;;;;;;342691;28;1287;-60
2023/11/19 00:36:52;;;;;;;12.98;8.40;;;;;;;;;;343948;28;1489;-60
2023/11/19 00:37:03;;;;;;;13.55;8.32;;;;;;;;;;342597;28;1315;-59
2023/11/19 00:37:15;;;;;;;12.82;8.18;;;;;;;;;;339931;29;1924;-59
2023/11/19 00:37:26;;;;;;;12.52;7.97;;;;;;;;;;338700;29;1577;-59
2023/11/19 00:37:37;;;;;;;12.18;7.90;;;;;;;;;;340722;29;1796;-60
2023/11/19 00:37:49;;;;;;;13.05;8.13;;;;;;;;;;341280;29;1292;-59
2023/11/19 00:38:00;;;;;;;14.73;8.48;;;;;;;;;;341328;29;1409;-59
2023/11/19 00:38:11;;;;;;;16.38;8.98;;;;;;;;;;341329;29;1319;-59
2023/11/19 00:38:22;;;;;;;14.70;9.27;;;;;;;;;;339960;29;1283;-59
2023/11/19 00:38:33;;;;;;;13.85;9.35;;;;;;;;;;338626;29;1296;-59
2023/11/19 00:38:44;;;;;;;12.65;8.95;;;;;;;;;;338720;29;1460;-59
2023/11/19 00:38:56;;;;;;;12.40;8.52;;;;;;;;;;338660;29;1460;-58
2023/11/19 00:39:07;;;;;;;13.48;8.55;;;;;;;;;;339940;29;1764;-59
2023/11/19 00:39:21;;;;;;;13.70;8.45;;;;;;;;;;341286;28;1648;-59
2023/11/19 00:39:32;;;;;;;14.10;8.52;;;;;;;;;;339573;29;1979;-59
2023/11/19 00:39:44;;;;;;;12.85;8.73;;;;;;;;;;341339;29;1316;-59
2023/11/19 00:39:56;;;;;;;12.43;8.45;;;;;;;;;;341244;29;1315;-59
2023/11/19 00:40:07;;;;;;;12.52;8.60;;;;;;;;;;339970;29;954;-59
2023/11/19 00:40:21;;;;;;;12.52;8.52;;;;;;;;;;341293;29;1413;-59
2023/11/19 00:40:32;;;;;;;12.10;7.97;;;;;;;;;;341287;29;1492;-59
2023/11/19 00:40:44;;;;;;;13.20;8.05;;;;;;;;;;339956;29;1291;-59
2023/11/19 00:40:55;;;;;;;12.75;8.00;;;;;;;;;;341518;28;1756;-59
2023/11/19 00:41:06;;;;;;;13.02;8.35;;;;;;;;;;342593;28;1473;-59
2023/11/19 00:41:17;;;;;;;16.75;8.75;;;;;;;;;;342688;28;1307;-59
2023/11/19 00:41:28;;;;;;;16.98;8.85;;;;;;;;;;342541;28;1488;-60
2023/11/19 00:41:40;;;;;;;15.80;9.10;;;;;;;;;;341339;29;1323;-59
2023/11/19 00:41:51;;;;;;;14.82;9.02;;;;;;;;;;341256;29;1440;-59
2023/11/19 00:42:02;;;;;;;13.20;8.57;;;;;;;;;;341223;29;1315;-59
2023/11/19 00:42:13;;;;;;;11.77;8.27;;;;;;;;;;338664;29;1417;-59
2023/11/19 00:42:25;;;;;;;12.05;8.55;;;;;;;;;;340320;29;1907;-59
2023/11/19 00:42:36;;;;;;;11.95;8.50;;;;;;;;;;342506;28;1871;-59
2023/11/19 00:42:47;;;;;;;11.35;8.38;;;;;;;;;;342555;28;1487;-59
2023/11/19 00:42:58;;;;;;;11.57;8.57;;;;;;;;;;341297;28;1522;-59
2023/11/19 00:43:09;;;;;;;12.43;8.77;;;;;;;;;;340025;29;1306;-59
2023/11/19 00:43:22;;;;;;;12.68;8.82;;;;;;;;;;339956;29;1278;-59
2023/11/19 00:43:33;;;;;;;11.70;8.40;;;;;;;;;;340011;29;1292;-60
2023/11/19 00:43:44;;;;;;;12.20;8.48;;;;;;;;;;338648;29;995;-59
2023/11/19 00:43:55;;;;;;;12.23;8.15;;;;;;;;;;338608;29;1434;-59
2023/11/19 00:44:06;;;;;;;11.45;7.95;;;;;;;;;;339440;29;1779;-60
2023/11/19 00:44:18;;;;;;;10.48;7.85;;;;;;;;;;339998;29;1532;-59
2023/11/19 00:44:29;;;;;;;10.98;7.90;;;;;;;;;;339938;29;1416;-59
2023/11/19 00:44:41;;;;;;;11.65;7.93;;;;;;;;;;339992;29;1406;-60
2023/11/19 00:44:52;;;;;;;13.50;8.30;;;;;;;;;;338666;29;1427;-60
2023/11/19 00:45:07;;;;;;;13.90;8.32;;;;;;;;;;339975;29;1069;-59
2023/11/19 00:45:19;;;;;;;11.70;7.90;;;;;;;;;;339991;29;1414;-58
2023/11/19 00:45:30;;;;;;;11.43;7.95;;;;;;;;;;339963;29;1454;-58
2023/11/19 00:45:41;;;;;;;10.80;8.13;;;;;;;;;;339947;29;1767;-59
2023/11/19 00:45:52;;;;;;;10.63;8.30;;;;;;;;;;339909;29;1307;-60
2023/11/19 00:46:04;;;;;;;10.50;8.10;;;;;;;;;;339871;29;1430;-59
2023/11/19 00:46:15;;;;;;;12.57;8.23;;;;;;;;;;339988;29;1285;-59
2023/11/19 00:46:27;;;;;;;12.43;8.25;;;;;;;;;;339902;29;1351;-58
2023/11/19 00:46:38;;;;;;;11.13;8.35;;;;;;;;;;338454;29;1683;-59
2023/11/19 00:46:49;;;;;;;12.23;8.63;;;;;;;;;;338182;29;1375;-60
2023/11/19 00:47:00;;;;;;;12.13;8.38;;;;;;;;;;339883;29;1664;-58
2023/11/19 00:47:11;;;;;;;11.65;8.05;;;;;;;;;;340010;29;1324;-59
2023/11/19 00:47:22;;;;;;;10.73;8.05;;;;;;;;;;340823;29;1575;-60
2023/11/19 00:47:34;;;;;;;12.07;8.32;;;;;;;;;;341280;29;1303;-60
2023/11/19 00:47:46;;;;;;;11.75;8.27;;;;;;;;;;341264;29;1427;-59
2023/11/19 00:47:59;;;;;;;11.85;7.97;;;;;;;;;;341279;29;1282;-59
2023/11/19 00:48:10;;;;;;;12.00;8.13;;;;;;;;;;338632;29;1465;-59
2023/11/19 00:48:21;;;;;;;13.07;8.48;;;;;;;;;;342615;28;1200;-60
2023/11/19 00:48:32;;;;;;;12.00;8.45;;;;;;;;;;341310;29;1505;-60
2023/11/19 00:48:43;;;;;;;12.85;8.45;;;;;;;;;;339922;29;1575;-60
2023/11/19 00:48:54;;;;;;;12.82;8.55;;;;;;;;;;341163;29;1795;-59
2023/11/19 00:49:06;;;;;;;12.38;8.45;;;;;;;;;;339857;29;1488;-59
2023/11/19 00:49:17;;;;;;;11.57;8.60;;;;;;;;;;340010;29;1548;-60
2023/11/19 00:49:28;;;;;;;11.38;8.40;;;;;;;;;;338556;29;1521;-59
2023/11/19 00:49:39;;;;;;;12.90;8.35;;;;;;;;;;341256;29;1303;-60
2023/11/19 00:49:51;;;;;;;13.85;8.30;;;;;;;;;;342611;28;1480;-60
2023/11/19 00:50:03;;;;;;;12.98;8.60;;;;;;;;;;341297;28;1369;-60
2023/11/19 00:50:14;;;;;;;12.65;9.02;;;;;;;;;;341282;29;1279;-59
2023/11/19 00:50:25;;;;;;;12.70;9.05;;;;;;;;;;341146;29;1696;-59
2023/11/19 00:50:36;;;;;;;13.50;9.13;;;;;;;;;;340820;29;1605;-60
2023/11/19 00:50:47;;;;;;;13.05;8.73;;;;;;;;;;339769;29;1459;-60
2023/11/19 00:50:58;;;;;;;12.20;8.52;;;;;;;;;;339770;29;923;-59
2023/11/19 00:51:12;;;;;;;13.27;8.43;;;;;;;;;;339844;29;1403;-60
2023/11/19 00:51:23;;;;;;;13.57;8.57;;;;;;;;;;341063;29;1305;-59
2023/11/19 00:51:34;;;;;;;12.80;8.40;;;;;;;;;;342497;28;1394;-59
2023/11/19 00:51:45;;;;;;;12.07;8.38;;;;;;;;;;341020;29;1489;-59
2023/11/19 00:51:57;;;;;;;11.43;8.25;;;;;;;;;;341088;29;1458;-59
2023/11/19 00:52:08;;;;;;;12.63;8.38;;;;;;;;;;339666;29;1680;-60
2023/11/19 00:52:19;;;;;;;12.95;8.25;;;;;;;;;;344134;28;1704;-60
2023/11/19 00:52:30;;;;;;;12.45;8.25;;;;;;;;;;342398;28;1732;-59
2023/11/19 00:52:42;;;;;;;11.93;8.32;;;;;;;;;;341030;29;1299;-59
2023/11/19 00:52:53;;;;;;;11.80;8.50;;;;;;;;;;341073;29;1318;-59
2023/11/19 00:53:04;;;;;;;11.25;8.55;;;;;;;;;;342376;28;1388;-59
2023/11/19 00:53:15;;;;;;;11.02;8.50;;;;;;;;;;341063;29;1675;-60
2023/11/19 00:53:26;;;;;;;11.38;8.43;;;;;;;;;;341203;28;1318;-59
2023/11/19 00:53:37;;;;;;;12.65;8.82;;;;;;;;;;343873;28;1683;-60
2023/11/19 00:53:48;;;;;;;12.90;8.77;;;;;;;;;;342801;28;1804;-60
2023/11/19 00:54:00;;;;;;;12.82;8.93;;;;;;;;;;343681;28;1617;-59
2023/11/19 00:54:11;;;;;;;12.52;8.65;;;;;;;;;;342520;28;1563;-60
2023/11/19 00:54:25;;;;;;;12.63;8.80;;;;;;;;;;342606;28;1356;-60
2023/11/19 00:54:36;;;;;;;11.40;8.45;;;;;;;;;;341293;29;1567;-59
2023/11/19 00:54:47;;;;;;;11.13;8.43;;;;;;;;;;342244;28;1434;-59
2023/11/19 00:54:58;;;;;;;10.95;8.43;;;;;;;;;;341225;29;1296;-59
2023/11/19 00:55:09;;;;;;;11.80;8.38;;;;;;;;;;339804;29;1310;-59
2023/11/19 00:55:20;;;;;;;13.05;8.52;;;;;;;;;;338624;29;1320;-60
2023/11/19 00:55:32;;;;;;;13.02;8.35;;;;;;;;;;339783;29;1714;-59
2023/11/19 00:55:43;;;;;;;12.15;8.25;;;;;;;;;;339855;29;1458;-60
2023/11/19 00:55:54;;;;;;;12.18;8.15;;;;;;;;;;339918;29;1332;-60
2023/11/19 00:56:05;;;;;;;12.80;8.23;;;;;;;;;;341063;29;1502;-60
2023/11/19 00:56:17;;;;;;;13.38;8.35;;;;;;;;;;339764;29;1503;-60
2023/11/19 00:56:28;;;;;;;11.52;8.30;;;;;;;;;;339951;29;1587;-59
2023/11/19 00:56:39;;;;;;;11.73;8.40;;;;;;;;;;341194;29;1303;-59
2023/11/19 00:56:52;;;;;;;11.02;8.27;;;;;;;;;;341172;29;1566;-60
2023/11/19 00:57:03;;;;;;;12.73;8.63;;;;;;;;;;341550;28;1594;-60
2023/11/19 00:57:14;;;;;;;13.27;8.77;;;;;;;;;;341114;29;1922;-59
2023/11/19 00:57:26;;;;;;;13.43;9.10;;;;;;;;;;341251;29;1327;-59
2023/11/19 00:57:37;;;;;;;12.55;8.70;;;;;;;;;;342503;28;1297;-59
2023/11/19 00:57:49;;;;;;;12.13;8.45;;;;;;;;;;345123;28;1298;-59
2023/11/19 00:58:00;;;;;;;13.63;8.60;;;;;;;;;;343941;28;1477;-59
2023/11/19 00:58:11;;;;;;;14.10;8.73;;;;;;;;;;342456;28;1322;-59
2023/11/19 00:58:22;;;;;;;14.93;8.65;;;;;;;;;;339955;29;1483;-59
2023/11/19 00:58:33;;;;;;;13.80;8.48;;;;;;;;;;339966;29;1547;-60
2023/11/19 00:58:45;;;;;;;13.70;8.55;;;;;;;;;;340930;29;1840;-59
2023/11/19 00:58:56;;;;;;;14.18;8.80;;;;;;;;;;341259;28;1317;-60
2023/11/19 00:59:07;;;;;;;13.43;8.85;;;;;;;;;;341229;29;1674;-60
2023/11/19 00:59:19;;;;;;;13.32;8.65;;;;;;;;;;341213;29;1453;-60
2023/11/19 00:59:30;;;;;;;12.70;8.70;;;;;;;;;;341209;29;1375;-59
2023/11/19 00:59:44;;;;;;;12.00;8.75;;;;;;;;;;339784;29;1480;-59
2023/11/19 00:59:55;;;;;;;12.20;8.60;;;;;;;;;;339835;29;2075;-59
2023/11/19 01:00:19;;;;;;;12.98;8.40;;;;;;;;;;339832;29;1296;-60
2023/11/19 01:00:32;;;;;;;12.65;8.40;;;;;;;;;;339846;29;1073;-59
2023/11/19 01:00:44;;;;;;;13.23;8.65;;;;;;;;;;341115;29;1322;-60
2023/11/19 01:00:57;;;;;;;12.93;8.60;;;;;;;;;;341210;29;1302;-58
2023/11/19 01:01:08;;;;;;;12.63;8.65;;;;;;;;;;339794;29;1434;-60
2023/11/19 01:01:19;;;;;;;14.15;8.70;;;;;;;;;;339838;29;1409;-60
2023/11/19 01:01:30;;;;;;;14.32;8.52;;;;;;;;;;339871;29;1495;-59
2023/11/19 01:01:41;;;;;;;13.98;8.50;;;;;;;;;;338613;29;1275;-58
2023/11/19 01:01:52;;;;;;;12.80;8.65;;;;;;;;;;339735;29;1801;-59
2023/11/19 01:02:05;;;;;;;13.27;8.60;;;;;;;;;;339702;29;1435;-59
2023/11/19 01:02:17;;;;;;;12.75;8.48;;;;;;;;;;338554;29;1062;-59
2023/11/19 01:02:28;;;;;;;11.60;8.32;;;;;;;;;;339865;29;1279;-59
2023/11/19 01:02:39;;;;;;;11.77;8.27;;;;;;;;;;339869;29;1299;-59
2023/11/19 01:02:50;;;;;;;12.05;8.00;;;;;;;;;;341226;29;1408;-59
2023/11/19 01:03:01;;;;;;;12.18;8.20;;;;;;;;;;339832;29;1306;-59
2023/11/19 01:03:12;;;;;;;12.18;8.35;;;;;;;;;;339846;29;1423;-60
2023/11/19 01:03:23;;;;;;;12.20;8.55;;;;;;;;;;339922;29;1303;-59
2023/11/19 01:03:35;;;;;;;12.07;8.60;;;;;;;;;;339374;29;1663;-59
2023/11/19 01:03:46;;;;;;;12.20;8.52;;;;;;;;;;339925;29;1465;-59
2023/11/19 01:03:57;;;;;;;11.45;8.38;;;;;;;;;;339916;29;1572;-59
2023/11/19 01:04:08;;;;;;;11.80;8.30;;;;;;;;;;341155;29;1446;-59
2023/11/19 01:04:19;;;;;;;12.35;8.27;;;;;;;;;;339895;29;1276;-59
2023/11/19 01:04:33;;;;;;;11.77;8.02;;;;;;;;;;341190;29;1307;-59
2023/11/19 01:04:45;;;;;;;11.13;8.20;;;;;;;;;;341118;29;1349;-59
2023/11/19 01:04:56;;;;;;;11.98;8.68;;;;;;;;;;341069;29;1586;-59
2023/11/19 01:05:09;;;;;;;12.63;8.73;;;;;;;;;;342280;28;1628;-60
2023/11/19 01:05:23;;;;;;;12.32;8.57;;;;;;;;;;342422;28;1773;-59
2023/11/19 01:05:34;;;;;;;10.93;7.97;;;;;;;;;;342389;28;1478;-59
2023/11/19 01:05:46;;;;;;;11.15;7.93;;;;;;;;;;343767;28;1598;-59
2023/11/19 01:05:59;;;;;;;11.68;8.38;;;;;;;;;;342553;28;1434;-59
2023/11/19 01:06:10;;;;;;;12.05;8.40;;;;;;;;;;341079;29;1291;-59
2023/11/19 01:06:28;;;;;;;12.48;8.35;;;;;;;;;;339840;29;1293;-60
2023/11/19 01:06:39;;;;;;;12.73;8.30;;;;;;;;;;339804;29;1644;-59
2023/11/19 01:06:50;;;;;;;12.07;8.38;;;;;;;;;;339727;29;1751;-59
2023/11/19 01:07:03;;;;;;;12.65;8.55;;;;;;;;;;338571;29;1461;-59
2023/11/19 01:07:14;;;;;;;12.27;8.70;;;;;;;;;;338564;29;1316;-59
2023/11/19 01:07:26;;;;;;;11.43;8.20;;;;;;;;;;339867;29;1497;-59
2023/11/19 01:07:39;;;;;;;12.10;8.40;;;;;;;;;;339810;29;1489;-59
2023/11/19 01:07:52;;;;;;;12.45;8.60;;;;;;;;;;342325;28;1588;-59
2023/11/19 01:08:04;;;;;;;12.13;8.60;;;;;;;;;;341021;29;1358;-60
2023/11/19 01:08:15;;;;;;;12.60;8.52;;;;;;;;;;339735;29;1652;-60
2023/11/19 01:08:27;;;;;;;13.00;8.77;;;;;;;;;;340286;29;1522;-60
2023/11/19 01:08:38;;;;;;;13.02;8.98;;;;;;;;;;341040;29;1740;-60
2023/11/19 01:08:49;;;;;;;13.23;9.00;;;;;;;;;;339699;29;1285;-60
2023/11/19 01:09:00;;;;;;;12.07;8.48;;;;;;;;;;338507;29;1466;-60
2023/11/19 01:09:11;;;;;;;11.48;8.07;;;;;;;;;;338476;29;1381;-60
2023/11/19 01:09:23;;;;;;;11.48;8.20;;;;;;;;;;339765;29;1350;-59
2023/11/19 01:09:37;;;;;;;12.65;8.65;;;;;;;;;;341121;29;1303;-60
2023/11/19 01:09:48;;;;;;;12.38;8.55;;;;;;;;;;342467;28;1598;-60
2023/11/19 01:09:59;;;;;;;11.90;8.38;;;;;;;;;;341142;29;1407;-60
2023/11/19 01:10:10;;;;;;;11.52;8.30;;;;;;;;;;340882;29;1419;-60
2023/11/19 01:10:21;;;;;;;11.10;8.30;;;;;;;;;;341203;29;1478;-60
2023/11/19 01:10:32;;;;;;;11.90;8.40;;;;;;;;;;341244;28;1313;-60